createdAt,value
2018-06-14T09:30:53.284Z,11472.00
2018-06-14T09:31:53.264Z,11916.00
2018-06-14T09:32:53.263Z,11768.00
2018-06-14T09:33:53.223Z,11152.00
2018-06-14T09:34:53.207Z,10912.00
2018-06-14T09:35:53.278Z,10504.00
2018-06-14T09:36:53.179Z,10160.00
2018-06-14T09:37:53.163Z,9852.00
2018-06-14T09:38:53.173Z,9696.00
2018-06-14T09:39:53.137Z,9812.00
2018-06-14T09:40:53.120Z,9812.00
2018-06-14T09:41:53.106Z,10772.00
2018-06-14T09:42:53.157Z,11684.00
2018-06-14T09:43:53.083Z,12848.00
2018-06-14T09:44:53.083Z,13352.00
2018-06-14T09:45:53.057Z,13216.00
2018-06-14T09:46:53.041Z,12716.00
2018-06-14T09:47:53.032Z,12644.00
2018-06-14T09:48:53.086Z,12608.00
2018-06-14T09:49:52.999Z,12804.00
2018-06-14T09:50:53.017Z,12632.00
2018-06-14T09:51:52.980Z,12620.00
2018-06-14T09:52:52.967Z,13188.00
2018-06-14T09:53:52.951Z,13576.00
2018-06-14T09:54:52.940Z,13736.00
2018-06-14T09:55:52.926Z,13948.00
2018-06-14T09:56:52.941Z,14404.00
2018-06-14T09:57:52.901Z,15024.00
2018-06-14T09:58:52.892Z,14684.00
2018-06-14T09:59:52.876Z,14372.00
2018-06-14T10:00:52.867Z,14180.00
2018-06-14T10:01:52.859Z,13980.00
2018-06-14T10:02:52.863Z,13800.00
2018-06-14T10:03:52.834Z,13604.00
2018-06-14T10:04:52.819Z,13792.00
2018-06-14T10:05:52.803Z,14852.00
2018-06-14T10:06:52.792Z,15036.00
2018-06-14T10:07:52.781Z,14380.00
2018-06-14T10:08:52.793Z,14056.00
2018-06-14T10:09:52.757Z,13984.00
2018-06-14T10:10:52.744Z,14356.00
2018-06-14T10:11:52.746Z,14708.00
2018-06-14T10:12:52.722Z,15368.00
2018-06-14T10:13:52.709Z,15572.00
2018-06-14T10:14:52.713Z,15128.00
2018-06-14T10:15:52.700Z,14896.00
2018-06-14T10:16:52.677Z,15344.00
2018-06-14T10:17:52.666Z,15608.00
2018-06-14T10:18:52.654Z,16092.00
2018-06-14T10:19:52.641Z,16128.00
2018-06-14T10:20:52.663Z,16096.00
2018-06-14T10:21:52.621Z,17056.00
2018-06-14T10:22:52.602Z,17376.00
2018-06-14T10:23:52.590Z,17568.00
2018-06-14T10:24:52.609Z,17824.00
2018-06-14T10:25:52.571Z,17920.00
2018-06-14T10:26:52.581Z,17696.00
2018-06-14T10:27:52.553Z,17376.00
2018-06-14T10:28:52.538Z,16576.00
2018-06-14T10:29:52.527Z,15968.00
2018-06-14T10:30:52.512Z,15756.00
2018-06-14T10:31:52.497Z,15376.00
2018-06-14T10:32:52.523Z,15540.00
2018-06-14T10:33:52.480Z,15392.00
2018-06-14T10:34:52.466Z,15736.00
2018-06-14T10:35:52.454Z,15528.00
2018-06-14T10:36:52.438Z,15512.00
2018-06-14T10:37:52.437Z,15632.00
2018-06-14T10:38:52.473Z,16832.00
2018-06-14T10:39:52.412Z,16576.00
2018-06-14T10:40:52.398Z,15912.00
2018-06-14T10:41:52.386Z,15772.00
2018-06-14T10:42:52.374Z,15956.00
2018-06-14T10:43:52.367Z,16512.00
2018-06-14T10:44:52.392Z,17088.00
2018-06-14T10:45:52.337Z,17568.00
2018-06-14T10:46:52.327Z,18752.00
2018-06-14T10:47:52.317Z,19648.00
2018-06-14T10:48:52.301Z,19328.00
2018-06-14T10:49:52.292Z,19328.00
2018-06-14T10:50:52.298Z,19200.00
2018-06-14T10:51:52.267Z,19104.00
2018-06-14T10:52:52.271Z,19168.00
2018-06-14T10:53:52.247Z,20192.00
2018-06-14T10:54:52.236Z,20896.00
2018-06-14T10:55:52.221Z,20960.00
2018-06-14T10:56:52.233Z,21376.00
2018-06-14T10:57:52.198Z,20736.00
2018-06-14T10:58:52.186Z,19904.00
2018-06-14T10:59:52.187Z,19936.00
2018-06-14T11:00:52.165Z,20480.00
2018-06-14T11:01:52.161Z,20256.00
2018-06-14T11:02:52.168Z,19680.00
2018-06-14T11:03:52.135Z,18304.00
2018-06-14T11:04:52.119Z,17632.00
2018-06-14T11:05:52.128Z,17248.00
2018-06-14T11:06:52.099Z,16380.00
2018-06-14T11:07:52.086Z,17216.00
2018-06-14T11:08:52.095Z,17088.00
2018-06-14T11:09:52.061Z,15640.00
2018-06-14T11:10:52.056Z,14660.00
2018-06-14T11:11:52.044Z,13956.00
2018-06-14T11:12:52.042Z,13640.00
2018-06-14T11:13:52.018Z,13808.00
2018-06-14T11:14:52.024Z,14044.00
2018-06-14T11:15:51.994Z,14080.00
2018-06-14T11:16:51.988Z,13004.00
2018-06-14T11:17:51.973Z,12452.00
2018-06-14T11:18:51.966Z,11780.00
2018-06-14T11:19:51.948Z,11548.00
2018-06-14T11:20:51.966Z,11420.00
2018-06-14T11:21:51.939Z,11640.00
2018-06-14T11:22:51.917Z,12060.00
2018-06-14T11:23:51.912Z,12420.00
2018-06-14T11:24:51.894Z,13300.00
2018-06-14T11:25:51.879Z,14284.00
2018-06-14T11:26:51.879Z,14656.00
2018-06-14T11:27:51.857Z,14880.00
2018-06-14T11:28:51.849Z,15780.00
2018-06-14T11:29:51.850Z,16576.00
2018-06-14T11:30:51.817Z,16156.00
2018-06-14T11:31:51.822Z,15412.00
2018-06-14T11:32:51.798Z,14736.00
2018-06-14T11:33:51.785Z,15244.00
2018-06-14T11:34:51.773Z,16020.00
2018-06-14T11:35:51.762Z,15804.00
2018-06-14T11:36:51.776Z,14324.00
2018-06-14T11:37:51.737Z,14616.00
2018-06-14T11:38:51.724Z,15592.00
2018-06-14T11:39:51.718Z,14856.00
2018-06-14T11:40:51.702Z,15548.00
2018-06-14T11:41:51.692Z,16792.00
2018-06-14T11:42:51.687Z,18368.00
2018-06-14T11:43:51.668Z,19104.00
2018-06-14T11:44:51.687Z,20000.00
2018-06-14T11:45:51.645Z,21152.00
2018-06-14T11:46:51.634Z,20544.00
2018-06-14T11:47:51.634Z,20192.00
2018-06-14T11:48:51.613Z,18432.00
2018-06-14T11:49:51.602Z,18272.00
2018-06-14T11:50:51.591Z,18688.00
2018-06-14T11:51:51.576Z,18688.00
2018-06-14T11:52:51.589Z,18336.00
2018-06-14T11:53:51.564Z,18400.00
2018-06-14T11:54:51.540Z,18848.00
2018-06-14T11:55:51.531Z,20256.00
2018-06-14T11:56:51.528Z,21056.00
2018-06-14T11:57:51.508Z,21760.00
2018-06-14T11:58:51.510Z,22144.00
2018-06-14T11:59:51.490Z,22624.00
2018-06-14T12:00:51.481Z,22912.00
2018-06-14T12:01:51.584Z,22464.00
2018-06-14T12:02:51.452Z,22528.00
2018-06-14T12:03:51.451Z,20896.00
2018-06-14T12:04:51.433Z,20256.00
2018-06-14T12:05:51.452Z,19328.00
2018-06-14T12:06:51.408Z,18848.00
2018-06-14T12:07:51.397Z,19136.00
2018-06-14T12:08:51.413Z,19264.00
2018-06-14T12:09:51.381Z,19392.00
2018-06-14T12:10:51.361Z,20192.00
2018-06-14T12:11:51.357Z,20864.00
2018-06-14T12:12:51.341Z,21856.00
2018-06-14T12:13:51.329Z,23008.00
2018-06-14T12:14:51.332Z,23392.00
2018-06-14T12:15:51.307Z,22848.00
2018-06-14T12:16:51.297Z,22880.00
2018-06-14T12:17:51.286Z,23392.00
2018-06-14T12:18:51.278Z,23424.00
2018-06-14T12:19:51.289Z,22688.00
2018-06-14T12:20:51.256Z,24224.00
2018-06-14T12:21:51.245Z,24096.00
2018-06-14T12:22:51.233Z,25184.00
2018-06-14T12:23:51.218Z,26368.00
2018-06-14T12:24:51.235Z,26592.00
2018-06-14T12:25:51.201Z,26848.00
2018-06-14T12:26:51.188Z,26080.00
2018-06-14T12:27:51.177Z,25376.00
2018-06-14T12:28:51.167Z,24896.00
2018-06-14T12:29:51.159Z,24320.00
2018-06-14T12:30:51.155Z,24352.00
2018-06-14T12:31:51.141Z,24288.00
2018-06-14T12:32:51.125Z,24800.00
2018-06-14T12:33:51.115Z,25024.00
2018-06-14T12:34:51.113Z,24992.00
2018-06-14T12:35:51.107Z,25216.00
2018-06-14T12:36:51.082Z,25376.00
2018-06-14T12:37:51.077Z,25248.00
2018-06-14T12:38:51.065Z,24736.00
2018-06-14T12:39:51.059Z,25152.00
2018-06-14T12:40:51.068Z,25504.00
2018-06-14T12:41:51.036Z,26048.00
2018-06-14T12:42:51.022Z,26464.00
2018-06-14T12:43:51.017Z,28032.00
2018-06-14T12:44:51.002Z,28288.00
2018-06-14T12:45:50.997Z,30240.00
2018-06-14T12:46:51.004Z,33536.00
2018-06-14T12:47:50.973Z,35072.00
2018-06-14T12:48:50.959Z,35200.00
2018-06-14T12:49:50.951Z,36032.00
2018-06-14T12:50:50.938Z,36800.00
2018-06-14T12:51:50.937Z,36128.00
2018-06-14T12:52:50.921Z,34976.00
2018-06-14T12:53:50.908Z,34720.00
2018-06-14T12:54:50.902Z,34688.00
2018-06-14T12:55:50.893Z,35168.00
2018-06-14T12:56:50.913Z,36704.00
2018-06-14T12:57:50.874Z,37728.00
2018-06-14T12:58:50.860Z,37920.00
2018-06-14T12:59:50.852Z,35360.00
2018-06-14T13:00:50.842Z,35872.00
2018-06-14T13:01:50.834Z,35968.00
2018-06-14T13:02:50.853Z,31968.00
2018-06-14T13:03:50.815Z,32192.00
2018-06-14T13:04:50.807Z,33280.00
2018-06-14T13:05:50.804Z,32608.00
2018-06-14T13:06:50.788Z,32320.00
2018-06-14T13:07:50.795Z,30496.00
2018-06-14T13:08:50.774Z,30816.00
2018-06-14T13:09:50.762Z,31552.00
2018-06-14T13:10:50.751Z,32352.00
2018-06-14T13:11:50.745Z,33536.00
2018-06-14T13:12:50.751Z,32768.00
2018-06-14T13:13:50.731Z,34112.00
2018-06-14T13:14:50.713Z,33664.00
2018-06-14T13:15:50.735Z,34848.00
2018-06-14T13:16:50.704Z,36672.00
2018-06-14T13:17:50.714Z,35360.00
2018-06-14T13:18:50.681Z,36064.00
2018-06-14T13:19:50.667Z,39232.00
2018-06-14T13:20:50.659Z,35936.00
2018-06-14T13:21:50.655Z,50528.00
2018-06-14T13:22:50.639Z,37568.00
2018-06-14T13:23:50.641Z,35360.00
2018-06-14T13:24:50.621Z,28224.00
2018-06-14T13:25:50.634Z,25632.00
2018-06-14T13:26:50.610Z,24032.00
2018-06-14T13:27:50.596Z,23040.00
2018-06-14T13:28:50.593Z,22112.00
2018-06-14T13:29:50.578Z,21536.00
2018-06-14T13:30:50.563Z,20672.00
2018-06-14T13:31:50.564Z,19840.00
2018-06-14T13:32:50.546Z,19424.00
2018-06-14T13:33:50.550Z,19456.00
2018-06-14T13:34:50.523Z,20160.00
2018-06-14T13:35:50.555Z,21280.00
2018-06-14T13:36:50.504Z,22592.00
2018-06-14T13:37:50.507Z,23840.00
2018-06-14T13:38:50.482Z,25280.00
2018-06-14T13:39:50.492Z,27072.00
2018-06-14T13:40:50.465Z,29696.00
2018-06-14T13:41:50.458Z,33696.00
2018-06-14T13:42:50.446Z,34432.00
2018-06-14T13:43:50.438Z,37120.00
2018-06-14T13:44:50.443Z,45440.00
2018-06-14T13:45:50.443Z,55264.00
2018-06-14T13:46:50.405Z,42464.00
2018-06-14T13:47:50.395Z,40352.00
2018-06-14T13:48:50.469Z,58784.00
2018-06-14T13:49:50.406Z,59328.00
2018-06-14T13:50:50.372Z,82240.00
2018-06-14T13:51:50.362Z,79424.00
2018-06-14T13:52:50.351Z,70880.00
2018-06-14T13:53:50.355Z,61472.00
2018-06-14T13:54:50.328Z,82496.00
2018-06-14T13:55:50.339Z,76320.00
2018-06-14T13:56:50.356Z,68448.00
2018-06-14T13:57:50.324Z,49152.00
2018-06-14T13:58:50.294Z,52256.00
2018-06-14T13:59:51.002Z,50976.00
2018-06-14T14:00:50.534Z,50336.00
2018-06-14T14:01:50.301Z,55936.00
2018-06-14T14:02:50.300Z,63488.00
2018-06-14T14:03:50.287Z,55616.00
2018-06-14T14:04:50.331Z,46048.00
2018-06-14T14:05:50.257Z,40032.00
2018-06-14T14:06:50.223Z,36896.00
2018-06-14T14:07:50.220Z,39040.00
2018-06-14T14:08:50.235Z,58880.00
2018-06-14T14:09:50.321Z,59680.00
2018-06-14T14:10:51.001Z,72000.00
2018-06-14T14:11:50.326Z,68896.00
2018-06-14T14:12:51.581Z,40704.00
2018-06-14T14:13:50.341Z,53184.00
2018-06-14T14:14:50.264Z,42304.00
2018-06-14T14:15:50.406Z,36768.00
2018-06-14T14:16:50.473Z,45120.00
2018-06-14T14:17:50.943Z,32640.00
2018-06-14T14:18:50.199Z,28736.00
2018-06-14T14:19:50.122Z,26656.00
2018-06-14T14:20:50.113Z,25440.00
2018-06-14T14:21:50.121Z,21920.00
2018-06-14T14:22:50.100Z,20768.00
2018-06-14T14:23:50.169Z,21856.00
2018-06-14T14:24:50.085Z,24704.00
2018-06-14T14:25:50.775Z,28384.00
2018-06-14T14:26:50.064Z,31104.00
2018-06-14T14:27:50.065Z,38912.00
2018-06-14T14:28:50.050Z,46880.00
2018-06-14T14:29:50.041Z,54528.00
2018-06-14T14:30:50.034Z,69344.00
2018-06-14T14:31:50.024Z,78080.00
2018-06-14T14:32:50.027Z,81920.00
2018-06-14T14:33:50.016Z,50016.00
2018-06-14T14:34:50.004Z,39264.00
2018-06-14T14:35:49.990Z,33728.00
2018-06-14T14:36:49.991Z,34048.00
2018-06-14T14:37:49.990Z,33440.00
2018-06-14T14:38:49.966Z,35136.00
2018-06-14T14:39:49.957Z,31392.00
2018-06-14T14:40:49.945Z,28992.00
2018-06-14T14:41:49.946Z,26912.00
2018-06-14T14:42:49.948Z,26176.00
2018-06-14T14:43:49.927Z,26848.00
2018-06-14T14:44:49.916Z,24704.00
2018-06-14T14:45:49.907Z,25280.00
2018-06-14T14:46:49.904Z,21472.00
2018-06-14T14:47:49.891Z,19808.00
2018-06-14T14:48:49.897Z,19456.00
2018-06-14T14:49:49.879Z,19680.00
2018-06-14T14:50:49.863Z,19008.00
2018-06-14T14:51:49.856Z,18688.00
2018-06-14T14:52:49.846Z,20640.00
2018-06-14T14:53:49.857Z,25408.00
2018-06-14T14:54:49.828Z,24544.00
2018-06-14T14:55:49.822Z,21920.00
2018-06-14T14:56:49.810Z,21312.00
2018-06-14T14:57:50.003Z,19936.00
2018-06-14T14:58:49.790Z,18016.00
2018-06-14T14:59:49.790Z,16000.00
2018-06-14T15:00:49.777Z,14476.00
2018-06-14T15:01:49.769Z,13416.00
2018-06-14T15:02:49.754Z,12512.00
2018-06-14T15:03:49.747Z,11632.00
2018-06-14T15:04:49.755Z,10828.00
2018-06-14T15:05:49.724Z,10008.00
2018-06-14T15:06:49.713Z,9508.00
2018-06-14T15:07:49.702Z,9148.00
2018-06-14T15:08:49.694Z,8856.00
2018-06-14T15:09:49.699Z,8776.00
2018-06-14T15:10:49.676Z,9008.00
2018-06-14T15:11:49.664Z,9412.00
2018-06-14T15:12:49.651Z,10128.00
2018-06-14T15:13:49.642Z,11044.00
2018-06-14T15:14:49.650Z,11700.00
2018-06-14T15:15:49.624Z,12448.00
2018-06-14T15:16:49.613Z,13368.00
2018-06-14T15:17:49.647Z,14188.00
2018-06-14T15:18:49.591Z,14372.00
2018-06-14T15:19:49.625Z,14248.00
2018-06-14T15:20:49.579Z,14032.00
2018-06-14T15:21:49.559Z,13588.00
2018-06-14T15:22:49.554Z,13004.00
2018-06-14T15:23:49.536Z,12420.00
2018-06-14T15:24:49.525Z,11828.00
2018-06-14T15:25:49.529Z,11300.00
2018-06-14T15:26:49.507Z,10944.00
2018-06-14T15:27:49.496Z,10720.00
2018-06-14T15:28:49.485Z,10592.00
2018-06-14T15:29:49.475Z,10512.00
2018-06-14T15:30:49.488Z,10440.00
2018-06-14T15:31:49.451Z,10368.00
2018-06-14T15:32:49.437Z,10280.00
2018-06-14T15:33:49.432Z,10192.00
2018-06-14T15:34:49.423Z,10092.00
2018-06-14T15:35:49.437Z,9996.00
2018-06-14T15:36:49.409Z,9900.00
2018-06-14T15:37:49.383Z,9804.00
2018-06-14T15:38:49.374Z,9700.00
2018-06-14T15:39:49.360Z,9580.00
2018-06-14T15:40:49.353Z,9400.00
2018-06-14T15:41:49.353Z,9184.00
2018-06-14T15:42:49.326Z,8964.00
2018-06-14T15:43:49.311Z,8768.00
2018-06-14T15:44:49.315Z,8564.00
2018-06-14T15:45:49.291Z,8324.00
2018-06-14T15:46:49.297Z,8108.00
2018-06-14T15:47:49.270Z,7908.00
2018-06-14T15:48:49.288Z,7744.00
2018-06-14T15:49:49.248Z,7652.00
2018-06-14T15:50:49.243Z,7684.00
2018-06-14T15:51:49.228Z,7644.00
2018-06-14T15:52:49.224Z,7588.00
2018-06-14T15:53:49.215Z,7500.00
2018-06-14T15:54:49.188Z,7456.00
2018-06-14T15:55:49.179Z,7324.00
2018-06-14T15:56:49.167Z,7024.00
2018-06-14T15:57:49.165Z,6636.00
2018-06-14T15:58:49.168Z,6320.00
2018-06-14T15:59:49.130Z,6060.00
2018-06-14T16:00:49.158Z,5780.00
2018-06-14T16:01:49.110Z,5532.00
2018-06-14T16:02:49.113Z,5352.00
2018-06-14T16:03:49.093Z,5200.00
2018-06-14T16:04:49.116Z,5092.00
2018-06-14T16:05:49.074Z,4968.00
2018-06-14T16:06:49.047Z,4856.00
2018-06-14T16:07:49.041Z,4812.00
2018-06-14T16:08:49.037Z,4788.00
2018-06-14T16:09:49.012Z,4792.00
2018-06-14T16:10:49.048Z,4852.00
2018-06-14T16:11:48.990Z,4884.00
2018-06-14T16:12:48.977Z,4808.00
2018-06-14T16:13:48.977Z,4664.00
2018-06-14T16:14:48.949Z,4480.00
2018-06-14T16:15:48.937Z,4272.00
2018-06-14T16:16:48.931Z,4116.00
2018-06-14T16:17:48.917Z,3948.00
2018-06-14T16:18:48.917Z,3752.00
2018-06-14T16:19:48.890Z,3612.00
2018-06-14T16:20:48.924Z,3532.00
2018-06-14T16:21:48.867Z,3440.00
2018-06-14T16:22:48.852Z,3316.00
2018-06-14T16:23:48.840Z,3184.00
2018-06-14T16:24:48.907Z,3044.00
2018-06-14T16:25:48.998Z,2904.00
2018-06-14T16:26:49.079Z,2776.00
2018-06-14T16:27:48.795Z,2676.00
2018-06-14T16:28:48.779Z,2608.00
2018-06-14T16:29:48.775Z,2596.00
2018-06-14T16:30:48.748Z,2628.00
2018-06-14T16:31:48.747Z,2732.00
2018-06-14T16:32:48.731Z,2884.00
2018-06-14T16:33:48.730Z,3056.00
2018-06-14T16:34:48.921Z,3192.00
2018-06-14T16:35:48.690Z,3320.00
2018-06-14T16:36:48.682Z,3404.00
2018-06-14T16:37:48.995Z,3408.00
2018-06-14T16:38:48.645Z,3400.00
2018-06-14T16:39:48.633Z,3356.00
2018-06-14T16:40:48.630Z,3316.00
2018-06-14T16:41:48.605Z,3308.00
2018-06-14T16:42:48.591Z,3296.00
2018-06-14T16:43:48.580Z,3236.00
2018-06-14T16:44:48.566Z,3144.00
2018-06-14T16:45:48.612Z,3040.00
2018-06-14T16:46:48.537Z,2948.00
2018-06-14T16:47:48.523Z,2852.00
2018-06-14T16:48:48.508Z,2760.00
2018-06-14T16:49:48.491Z,2696.00
2018-06-14T16:50:48.498Z,2628.00
2018-06-14T16:51:48.522Z,2584.00
2018-06-14T16:52:48.459Z,2540.00
2018-06-14T16:53:48.437Z,2508.00
2018-06-14T16:54:48.418Z,2508.00
2018-06-14T16:55:48.415Z,2512.00
2018-06-14T16:56:48.404Z,2516.00
2018-06-14T16:57:48.383Z,2512.00
2018-06-14T16:58:48.368Z,2516.00
2018-06-14T16:59:48.352Z,2520.00
2018-06-14T17:00:48.335Z,2512.00
2018-06-14T17:01:48.328Z,2516.00
2018-06-14T17:02:48.305Z,2536.00
2018-06-14T17:03:48.290Z,2544.00
2018-06-14T17:04:48.276Z,2552.00
2018-06-14T17:05:48.258Z,2568.00
2018-06-14T17:06:50.075Z,2588.00
2018-06-14T17:07:48.231Z,2596.00
2018-06-14T17:08:48.219Z,2576.00
2018-06-14T17:09:48.200Z,2540.00
2018-06-14T17:10:48.181Z,2492.00
2018-06-14T17:11:48.168Z,2452.00
2018-06-14T17:12:48.167Z,2412.00
2018-06-14T17:13:48.136Z,2364.00
2018-06-14T17:14:48.127Z,2336.00
2018-06-14T17:15:48.105Z,2304.00
2018-06-14T17:16:48.095Z,2264.00
2018-06-14T17:17:48.088Z,2236.00
2018-06-14T17:18:48.063Z,2212.00
2018-06-14T17:19:48.045Z,2208.00
2018-06-14T17:20:48.028Z,2208.00
2018-06-14T17:21:48.016Z,2220.00
2018-06-14T17:22:48.020Z,2236.00
2018-06-14T17:23:47.983Z,2256.00
2018-06-14T17:24:47.970Z,2268.00
2018-06-14T17:25:47.954Z,2268.00
2018-06-14T17:26:47.936Z,2248.00
2018-06-14T17:27:47.921Z,2204.00
2018-06-14T17:28:47.916Z,2148.00
2018-06-14T17:29:47.888Z,2084.00
2018-06-14T17:30:47.874Z,2032.00
2018-06-14T17:31:47.868Z,1988.00
2018-06-14T17:32:47.848Z,1936.00
2018-06-14T17:33:47.845Z,1868.00
2018-06-14T17:34:47.811Z,1804.00
2018-06-14T17:35:47.797Z,1744.00
2018-06-14T17:36:47.784Z,1700.00
2018-06-14T17:37:47.771Z,1668.00
2018-06-14T17:38:47.764Z,1644.00
2018-06-14T17:39:47.740Z,1616.00
2018-06-14T17:40:47.730Z,1564.00
2018-06-14T17:41:47.706Z,1512.00
2018-06-14T17:42:47.692Z,1468.00
2018-06-14T17:43:47.675Z,1460.00
2018-06-14T17:44:47.666Z,1460.00
2018-06-14T17:45:47.641Z,1472.00
2018-06-14T17:46:47.632Z,1492.00
2018-06-14T17:47:47.652Z,1528.00
2018-06-14T17:48:47.599Z,1564.00
2018-06-14T17:49:47.601Z,1616.00
2018-06-14T17:50:47.562Z,1692.00
2018-06-14T17:51:47.550Z,1788.00
2018-06-14T17:52:47.539Z,1884.00
2018-06-14T17:53:47.598Z,1944.00
2018-06-14T17:54:47.532Z,1936.00
2018-06-14T17:55:47.485Z,1916.00
2018-06-14T17:56:47.471Z,1912.00
2018-06-14T17:57:47.455Z,1932.00
2018-06-14T17:58:47.444Z,1964.00
2018-06-14T17:59:47.451Z,2028.00
2018-06-14T18:00:47.415Z,2140.00
2018-06-14T18:01:47.406Z,2296.00
2018-06-14T18:02:47.381Z,2440.00
2018-06-14T18:03:47.371Z,2480.00
2018-06-14T18:04:47.346Z,2468.00
2018-06-14T18:05:47.342Z,2484.00
2018-06-14T18:06:47.317Z,2484.00
2018-06-14T18:07:47.309Z,2408.00
2018-06-14T18:08:47.291Z,2304.00
2018-06-14T18:09:47.273Z,2188.00
2018-06-14T18:10:47.268Z,2080.00
2018-06-14T18:11:47.241Z,1996.00
2018-06-14T18:12:47.226Z,1940.00
2018-06-14T18:13:47.208Z,1892.00
2018-06-14T18:14:47.191Z,1840.00
2018-06-14T18:15:47.207Z,1808.00
2018-06-14T18:16:47.166Z,1792.00
2018-06-14T18:17:47.165Z,1756.00
2018-06-14T18:18:47.173Z,1676.00
2018-06-14T18:19:47.115Z,1556.00
2018-06-14T18:20:47.105Z,1452.00
2018-06-14T18:21:47.103Z,1388.00
2018-06-14T18:22:47.067Z,1384.00
2018-06-14T18:23:47.055Z,1380.00
2018-06-14T18:24:47.040Z,1352.00
2018-06-14T18:25:47.023Z,1328.00
2018-06-14T18:26:47.017Z,1300.00
2018-06-14T18:27:46.998Z,1252.00
2018-06-14T18:28:46.973Z,1204.00
2018-06-14T18:29:47.063Z,1132.00
2018-06-14T18:30:46.945Z,1036.00
2018-06-14T18:31:46.957Z,924.00
2018-06-14T18:32:46.936Z,820.00
2018-06-14T18:33:46.901Z,740.00
2018-06-14T18:34:46.885Z,676.00
2018-06-14T18:35:46.869Z,628.00
2018-06-14T18:36:46.851Z,580.00
2018-06-14T18:37:46.850Z,552.00
2018-06-14T18:38:46.825Z,524.00
2018-06-14T18:39:46.807Z,504.00
2018-06-14T18:40:46.788Z,488.00
2018-06-14T18:41:46.774Z,488.00
2018-06-14T18:42:46.772Z,476.00
2018-06-14T18:43:46.747Z,460.00
2018-06-14T18:44:46.727Z,444.00
2018-06-14T18:45:46.711Z,436.00
2018-06-14T18:46:46.693Z,424.00
2018-06-14T18:47:46.716Z,416.00
2018-06-14T18:48:46.670Z,408.00
2018-06-14T18:49:46.705Z,400.00
2018-06-14T18:50:46.634Z,396.00
2018-06-14T18:51:46.624Z,408.00
2018-06-14T18:52:46.604Z,416.00
2018-06-14T18:53:46.605Z,428.00
2018-06-14T18:54:46.572Z,432.00
2018-06-14T18:55:46.557Z,428.00
2018-06-14T18:56:46.539Z,428.00
2018-06-14T18:57:46.523Z,424.00
2018-06-14T18:58:46.516Z,428.00
2018-06-14T18:59:46.497Z,428.00
2018-06-14T19:00:46.474Z,428.00
2018-06-14T19:01:46.460Z,436.00
2018-06-14T19:02:46.448Z,444.00
2018-06-14T19:03:46.445Z,456.00
2018-06-14T19:04:46.413Z,468.00
2018-06-14T19:05:46.397Z,472.00
2018-06-14T19:06:46.420Z,484.00
2018-06-14T19:07:46.365Z,488.00
2018-06-14T19:08:46.371Z,500.00
2018-06-14T19:09:46.335Z,508.00
2018-06-14T19:10:46.322Z,520.00
2018-06-14T19:11:46.303Z,532.00
2018-06-14T19:12:46.297Z,548.00
2018-06-14T19:13:46.274Z,560.00
2018-06-14T19:14:46.268Z,572.00
2018-06-14T19:15:46.248Z,576.00
2018-06-14T19:16:46.224Z,568.00
2018-06-14T19:17:46.215Z,556.00
2018-06-14T19:18:46.192Z,548.00
2018-06-14T19:19:46.197Z,524.00
2018-06-14T19:20:46.164Z,496.00
2018-06-14T19:21:46.144Z,472.00
2018-06-14T19:22:46.130Z,432.00
2018-06-14T19:23:46.114Z,408.00
2018-06-14T19:24:46.126Z,388.00
2018-06-14T19:25:46.090Z,380.00
2018-06-14T19:26:46.067Z,384.00
2018-06-14T19:27:46.050Z,388.00
2018-06-14T19:28:46.036Z,396.00
2018-06-14T19:29:46.018Z,392.00
2018-06-14T19:30:46.016Z,384.00
2018-06-14T19:31:45.987Z,364.00
2018-06-14T19:32:45.971Z,348.00
2018-06-14T19:33:45.958Z,336.00
2018-06-14T19:34:45.940Z,324.00
2018-06-14T19:35:45.934Z,304.00
2018-06-14T19:36:45.907Z,280.00
2018-06-14T19:37:45.895Z,252.00
2018-06-14T19:38:45.878Z,228.00
2018-06-14T19:39:45.861Z,204.00
2018-06-14T19:40:45.862Z,192.00
2018-06-14T19:41:45.831Z,180.00
2018-06-14T19:42:45.814Z,168.00
2018-06-14T19:43:45.799Z,152.00
2018-06-14T19:44:45.783Z,136.00
2018-06-14T19:45:45.767Z,120.00
2018-06-14T19:46:45.776Z,104.00
2018-06-14T19:47:45.733Z,88.00
2018-06-14T19:48:45.722Z,80.00
2018-06-14T19:49:45.709Z,72.00
2018-06-14T19:50:45.687Z,68.00
2018-06-14T19:51:45.681Z,60.00
2018-06-14T19:52:45.656Z,56.00
2018-06-14T19:53:45.638Z,52.00
2018-06-14T19:54:45.683Z,52.00
2018-06-14T19:55:45.607Z,48.00
2018-06-14T19:56:45.610Z,44.00
2018-06-14T19:57:45.577Z,44.00
2018-06-14T19:58:45.560Z,36.00
2018-06-14T19:59:45.546Z,36.00
2018-06-14T20:00:45.529Z,32.00
2018-06-14T20:01:45.512Z,28.00
2018-06-14T20:02:45.507Z,28.00
2018-06-14T20:03:45.480Z,24.00
2018-06-14T20:04:45.465Z,20.00
2018-06-14T20:05:45.447Z,16.00
2018-06-14T20:06:45.432Z,16.00
2018-06-14T20:07:45.432Z,16.00
2018-06-14T20:08:45.401Z,12.00
2018-06-14T20:09:45.384Z,12.00
2018-06-14T20:10:45.368Z,12.00
2018-06-14T20:11:45.355Z,12.00
2018-06-14T20:12:45.351Z,12.00
2018-06-14T20:13:46.530Z,8.00
2018-06-14T20:14:45.304Z,8.00
2018-06-14T20:15:45.292Z,8.00
2018-06-14T20:16:45.276Z,4.00
2018-06-14T20:17:45.256Z,4.00
2018-06-14T20:18:45.269Z,4.00
2018-06-14T20:19:45.226Z,4.00
2018-06-14T20:20:45.247Z,4.00
2018-06-14T20:21:45.194Z,0.00
2018-06-14T20:22:45.177Z,0.00
2018-06-14T20:23:45.175Z,4.00
2018-06-14T20:24:45.145Z,4.00
2018-06-14T20:25:45.133Z,0.00
2018-06-14T20:26:45.121Z,0.00
2018-06-14T20:27:45.097Z,0.00
2018-06-14T20:28:45.103Z,0.00
2018-06-14T20:29:45.065Z,0.00
2018-06-14T20:30:45.050Z,0.00
2018-06-14T20:31:45.036Z,0.00
2018-06-14T20:32:45.019Z,0.00
2018-06-14T20:33:45.020Z,0.00
2018-06-14T20:34:44.986Z,0.00
2018-06-14T20:35:44.976Z,0.00
2018-06-14T20:36:44.957Z,0.00
2018-06-14T20:37:44.941Z,0.00
2018-06-14T20:38:44.925Z,0.00
2018-06-14T20:39:44.917Z,0.00
2018-06-14T20:40:44.890Z,0.00
2018-06-14T20:41:44.884Z,0.00
2018-06-14T20:42:44.863Z,0.00
2018-06-14T20:43:44.906Z,0.00
2018-06-14T20:44:44.837Z,0.00
2018-06-14T20:45:44.811Z,0.00
2018-06-14T20:46:44.795Z,0.00
2018-06-14T20:47:44.778Z,0.00
2018-06-14T20:48:44.775Z,0.00
2018-06-14T20:49:44.887Z,0.00
2018-06-14T20:50:44.733Z,0.00
2018-06-14T20:51:44.777Z,0.00
2018-06-14T20:52:45.023Z,0.00
2018-06-14T20:53:44.682Z,0.00
2018-06-14T20:54:44.670Z,0.00
2018-06-14T20:55:44.665Z,0.00
2018-06-14T20:56:44.634Z,0.00
2018-06-14T20:57:44.616Z,0.00
2018-06-14T20:58:44.601Z,0.00
2018-06-14T20:59:44.590Z,0.00
2018-06-14T21:00:44.589Z,0.00
2018-06-14T21:01:44.558Z,0.00
2018-06-14T21:02:44.538Z,0.00
2018-06-14T21:03:44.521Z,0.00
2018-06-14T21:04:44.504Z,0.00
2018-06-14T21:05:44.504Z,0.00
2018-06-14T21:06:44.473Z,0.00
2018-06-14T21:07:44.458Z,0.00
2018-06-14T21:08:44.443Z,0.00
2018-06-14T21:09:44.424Z,0.00
2018-06-14T21:10:44.413Z,0.00
2018-06-14T21:11:44.403Z,0.00
2018-06-14T21:12:44.382Z,0.00
2018-06-14T21:13:44.363Z,0.00
2018-06-14T21:14:44.344Z,0.00
2018-06-14T21:15:44.347Z,0.00
2018-06-14T21:16:44.328Z,0.00
2018-06-14T21:17:44.298Z,0.00
2018-06-14T21:18:44.282Z,0.00
2018-06-14T21:19:44.264Z,0.00
2018-06-14T21:20:44.247Z,0.00
2018-06-14T21:21:44.250Z,0.00
2018-06-14T21:22:44.215Z,0.00
2018-06-14T21:23:44.202Z,0.00
2018-06-14T21:24:44.183Z,0.00
2018-06-14T21:25:44.168Z,0.00
2018-06-14T21:26:44.149Z,0.00
2018-06-14T21:27:44.154Z,0.00
2018-06-14T21:28:44.120Z,0.00
2018-06-14T21:29:44.103Z,0.00
2018-06-14T21:30:44.090Z,0.00
2018-06-14T21:31:44.071Z,0.00
2018-06-14T21:32:44.071Z,0.00
2018-06-14T21:33:44.039Z,0.00
2018-06-14T21:34:44.029Z,0.00
2018-06-14T21:35:44.007Z,0.00
2018-06-14T21:36:43.990Z,0.00